Time;durP1;ratioP1;P1;durP2;ratioP2;P2;SDS_P1;SDS_P2;PMS_P1;PMS_P2;Temp;Humidity;BMP_temperature;BMP_pressure;BME280_temperature;BME280_humidity;BME280_pressure;Samples;Min_cycle;Max_cycle;Signal;HPM_P1;HPM_P2
2022/04/30 07:10:41;;;;;;;8.40;6.15;;;8.20;99.90;;;;;;5132106;27;20471;-69
2022/04/30 07:13:07;;;;;;;8.07;6.25;;;8.40;99.90;;;;;;5132088;28;20170;-69
2022/04/30 07:15:32;;;;;;;8.68;5.95;;;8.40;99.90;;;;;;5131930;28;20166;-69
2022/04/30 07:17:58;;;;;;;10.65;6.63;;;8.50;99.90;;;;;;5132033;28;20170;-69
2022/04/30 07:20:24;;;;;;;8.43;7.25;;;8.50;99.90;;;;;;5131878;28;20658;-69
2022/04/30 07:22:49;;;;;;;7.30;6.35;;;8.50;99.90;;;;;;5131866;28;20635;-69
2022/04/30 07:25:15;;;;;;;9.77;6.25;;;8.60;99.90;;;;;;5131757;28;20620;-69
2022/04/30 07:27:40;;;;;;;9.20;6.55;;;8.50;99.90;;;;;;5131746;28;20291;-69
2022/04/30 07:30:06;;;;;;;14.32;6.68;;;8.50;99.90;;;;;;5131754;28;20194;-69
2022/04/30 07:32:32;;;;;;;7.18;6.47;;;8.60;99.90;;;;;;5131623;28;20166;-70
2022/04/30 07:34:57;;;;;;;6.65;6.05;;;8.60;99.90;;;;;;5131534;28;20163;-70
2022/04/30 07:37:23;;;;;;;5.93;5.40;;;8.70;99.90;;;;;;5131692;28;20177;-70
2022/04/30 07:39:49;;;;;;;7.05;6.43;;;8.80;99.90;;;;;;5131619;28;20167;-70
2022/04/30 07:42:14;;;;;;;7.63;5.60;;;8.80;99.90;;;;;;5131542;28;20194;-70
2022/04/30 07:44:40;;;;;;;6.82;5.85;;;8.80;99.90;;;;;;5131658;28;20532;-70
2022/04/30 07:47:05;;;;;;;6.00;5.43;;;8.90;99.90;;;;;;5131472;28;20531;-70
2022/04/30 07:49:31;;;;;;;9.00;5.60;;;9.00;99.90;;;;;;5131125;28;20207;-70
2022/04/30 07:51:57;;;;;;;6.57;5.97;;;9.10;99.90;;;;;;5131319;28;20166;-70
2022/04/30 07:54:23;;;;;;;7.28;5.78;;;9.10;99.90;;;;;;5131330;28;20170;-70
2022/04/30 07:56:53;;;;;;;6.97;6.35;;;9.00;99.90;;;;;;5131218;28;20167;-70
2022/04/30 07:59:20;;;;;;;7.75;7.00;;;8.90;99.90;;;;;;5131118;28;20236;-70
2022/04/30 08:01:46;;;;;;;8.43;7.00;;;8.80;99.90;;;;;;5131023;27;20629;-70
2022/04/30 08:04:12;;;;;;;9.15;7.05;;;8.60;99.90;;;;;;5130859;27;20183;-69
2022/04/30 08:06:37;;;;;;;7.68;6.93;;;9.40;99.90;;;;;;5129604;28;20198;-69
2022/04/30 08:09:03;;;;;;;12.35;7.03;;;8.60;99.90;;;;;;5130487;27;20246;-69
2022/04/30 08:11:29;;;;;;;8.15;6.70;;;8.50;99.90;;;;;;5130927;27;20163;-69
2022/04/30 08:13:54;;;;;;;7.28;6.45;;;8.40;99.90;;;;;;5130835;27;20167;-69
2022/04/30 08:16:20;;;;;;;10.95;7.72;;;8.40;99.90;;;;;;5130933;27;20162;-69
2022/04/30 08:18:45;;;;;;;8.40;6.97;;;8.30;99.90;;;;;;5129507;28;20175;-69
2022/04/30 08:21:11;;;;;;;12.20;6.90;;;8.40;99.90;;;;;;5122022;27;20163;-70
2022/04/30 08:23:37;;;;;;;8.10;5.85;;;8.30;99.90;;;;;;5117035;28;20175;-69
2022/04/30 08:26:03;;;;;;;5.57;5.18;;;8.30;99.90;;;;;;5116957;28;20195;-70
2022/04/30 08:28:29;;;;;;;12.52;5.93;;;8.30;99.90;;;;;;5116852;28;20175;-69
2022/04/30 08:30:56;;;;;;;8.05;4.70;;;8.30;99.90;;;;;;5116918;28;20195;-70
2022/04/30 08:33:21;;;;;;;6.60;4.93;;;8.30;99.90;;;;;;5116848;28;20254;-69
2022/04/30 08:35:48;;;;;;;11.70;5.18;;;8.30;99.90;;;;;;5116743;28;20588;-69
2022/04/30 08:38:14;;;;;;;5.35;4.88;;;8.40;99.90;;;;;;5116832;28;20224;-70
2022/04/30 08:40:43;;;;;;;5.50;5.00;;;8.40;99.90;;;;;;5116648;28;20632;-70
2022/04/30 08:43:13;;;;;;;6.50;5.22;;;8.60;99.90;;;;;;5116645;28;20199;-70
2022/04/30 08:45:40;;;;;;;6.38;5.68;;;8.80;99.90;;;;;;5116621;28;20163;-69
2022/04/30 08:48:11;;;;;;;5.63;5.13;;;8.90;99.90;;;;;;5116541;28;20163;-70
2022/04/30 08:50:39;;;;;;;9.70;5.38;;;9.00;99.90;;;;;;5116338;28;20198;-69
2022/04/30 08:53:05;;;;;;;5.03;4.50;;;9.00;99.90;;;;;;5116347;28;20168;-70
2022/04/30 08:55:31;;;;;;;9.68;5.38;;;9.10;99.90;;;;;;5116637;28;20174;-69
2022/04/30 08:57:56;;;;;;;8.98;5.03;;;9.10;99.90;;;;;;5116392;28;20168;-69
2022/04/30 09:00:22;;;;;;;5.43;5.07;;;9.30;99.90;;;;;;5116404;28;20232;-69
2022/04/30 09:02:52;;;;;;;6.10;5.50;;;9.40;99.90;;;;;;5116158;28;20224;-69
2022/04/30 09:05:18;;;;;;;5.30;4.90;;;9.40;99.90;;;;;;5116187;28;20163;-70
2022/04/30 09:07:53;;;;;;;8.43;5.72;;;9.30;99.90;;;;;;5116250;28;20171;-69
2022/04/30 09:10:23;;;;;;;7.60;5.03;;;9.30;99.90;;;;;;5115895;28;20715;-69
2022/04/30 09:12:51;;;;;;;7.35;6.60;;;9.30;99.90;;;;;;5116028;28;20250;-70
2022/04/30 09:15:17;;;;;;;6.63;6.05;;;9.20;99.90;;;;;;5116113;28;20644;-69
2022/04/30 09:17:43;;;;;;;8.60;7.88;;;9.20;99.90;;;;;;5116216;28;20178;-69
2022/04/30 09:20:18;;;;;;;8.57;7.78;;;9.10;99.90;;;;;;5115932;28;20170;-69
2022/04/30 09:22:44;;;;;;;7.30;6.82;;;9.10;99.90;;;;;;5115961;28;20167;-69
2022/04/30 09:25:15;;;;;;;7.70;6.55;;;9.10;99.90;;;;;;5115724;28;20167;-69
2022/04/30 09:27:46;;;;;;;6.95;6.53;;;9.10;99.90;;;;;;5115724;28;20162;-69
2022/04/30 09:30:24;;;;;;;7.13;6.53;;;9.00;99.90;;;;;;5115659;28;20191;-69
2022/04/30 09:33:04;;;;;;;7.45;6.75;;;9.10;99.90;;;;;;5114820;28;20219;-69
2022/04/30 09:38:15;;;;;;;6.38;5.88;;;9.30;99.90;;;;;;5115534;28;20216;-69
2022/04/30 09:40:55;;;;;;;7.38;6.90;;;9.30;99.90;;;;;;5115636;28;20167;-69
2022/04/30 09:43:27;;;;;;;7.03;5.50;;;9.30;99.90;;;;;;5115425;28;20169;-69
2022/04/30 09:45:59;;;;;;;7.70;5.82;;;9.30;99.90;;;;;;5115502;28;20250;-70
2022/04/30 09:54:00;;;;;;;8.80;6.22;;;9.40;99.90;;;;;;5115269;28;20213;-69
2022/04/30 09:56:38;;;;;;;8.90;5.35;;;9.30;99.90;;;;;;5115174;28;20271;-69
2022/04/30 09:59:12;;;;;;;6.43;5.72;;;9.40;99.90;;;;;;5113691;28;20278;-70
2022/04/30 10:01:40;;;;;;;5.82;5.32;;;9.40;99.90;;;;;;5115057;28;20255;-69
2022/04/30 10:04:07;;;;;;;6.47;5.97;;;9.40;99.90;;;;;;5115310;28;20171;-69
2022/04/30 10:06:34;;;;;;;10.73;5.60;;;9.50;99.90;;;;;;5115080;28;20175;-69
2022/04/30 10:09:00;;;;;;;7.15;6.18;;;9.60;99.90;;;;;;5114681;28;20551;-69
2022/04/30 10:11:54;;;;;;;6.25;5.40;;;9.60;99.90;;;;;;5114928;28;20216;-69
2022/04/30 10:14:42;;;;;;;6.10;5.55;;;9.70;99.90;;;;;;5114985;28;20164;-69
2022/04/30 10:17:11;;;;;;;5.90;5.50;;;9.70;99.90;;;;;;5114889;28;20174;-69
2022/04/30 10:19:38;;;;;;;6.07;5.43;;;9.70;99.90;;;;;;5114810;28;20652;-70
2022/04/30 10:22:10;;;;;;;5.10;4.68;;;9.70;99.90;;;;;;5114766;28;20175;-69
2022/04/30 10:24:47;;;;;;;5.90;5.18;;;9.80;99.90;;;;;;5114669;28;20658;-69
2022/04/30 10:27:13;;;;;;;5.35;4.95;;;9.90;99.90;;;;;;5114583;28;20198;-69
2022/04/30 10:29:58;;;;;;;7.07;5.15;;;10.00;99.90;;;;;;5114481;28;20183;-70
2022/04/30 10:32:27;;;;;;;7.47;5.60;;;10.00;99.90;;;;;;5114646;28;20170;-69
2022/04/30 10:34:53;;;;;;;6.65;6.05;;;10.20;99.90;;;;;;5114483;28;20166;-70
2022/04/30 10:37:34;;;;;;;5.43;5.10;;;10.40;99.90;;;;;;5114645;28;20167;-70
2022/04/30 10:40:03;;;;;;;7.80;5.63;;;10.70;99.90;;;;;;5114590;28;20202;-70
2022/04/30 10:42:30;;;;;;;5.85;5.20;;;10.80;99.90;;;;;;5114442;28;20519;-70
2022/04/30 10:44:56;;;;;;;6.03;5.43;;;11.00;99.90;;;;;;5114013;28;20163;-70
2022/04/30 10:47:22;;;;;;;5.90;5.47;;;11.20;99.90;;;;;;5114206;28;20178;-70
2022/04/30 10:49:49;;;;;;;6.40;5.80;;;11.00;99.90;;;;;;5113051;28;20244;-69
2022/04/30 10:52:24;;;;;;;6.28;5.88;;;10.90;99.90;;;;;;5114241;28;20159;-70
2022/04/30 10:54:51;;;;;;;6.63;5.85;;;10.80;99.90;;;;;;5114377;28;20166;-70
2022/04/30 10:57:17;;;;;;;5.97;5.38;;;10.80;99.90;;;;;;5114275;28;20212;-69
2022/04/30 10:59:43;;;;;;;7.47;5.45;;;10.90;99.90;;;;;;5113992;28;20187;-69
2022/04/30 11:02:12;;;;;;;8.63;5.18;;;11.00;99.90;;;;;;5114131;28;20177;-70
2022/04/30 11:04:41;;;;;;;7.28;5.30;;;11.10;99.90;;;;;;5114199;28;20166;-70
2022/04/30 11:07:08;;;;;;;5.07;4.68;;;11.20;99.90;;;;;;5114078;28;20177;-70
2022/04/30 11:09:45;;;;;;;5.88;5.38;;;11.20;99.90;;;;;;5113973;28;20219;-70
2022/04/30 11:12:14;;;;;;;4.90;4.35;;;11.30;99.90;;;;;;5114019;28;20679;-70
2022/04/30 11:14:42;;;;;;;5.10;4.68;;;11.40;99.90;;;;;;5114147;28;20163;-70
2022/04/30 11:17:08;;;;;;;6.22;4.50;;;11.30;99.90;;;;;;5114002;28;20163;-69
2022/04/30 11:19:40;;;;;;;6.97;5.18;;;11.30;99.90;;;;;;5113894;28;20700;-70
2022/04/30 11:22:09;;;;;;;6.18;4.47;;;11.10;99.90;;;;;;5114138;28;20163;-69
2022/04/30 11:24:37;;;;;;;4.85;4.22;;;11.10;99.90;;;;;;5114001;28;20167;-69
2022/04/30 11:27:05;;;;;;;4.53;4.13;;;11.30;99.90;;;;;;5114011;28;20167;-70
2022/04/30 11:29:32;;;;;;;7.13;4.15;;;11.50;99.90;;;;;;5113966;28;20256;-69
2022/04/30 11:31:59;;;;;;;4.10;3.72;;;11.60;99.90;;;;;;5112807;28;20535;-70
2022/04/30 11:34:25;;;;;;;4.28;3.95;;;11.80;99.90;;;;;;5113909;28;20167;-70
2022/04/30 11:36:53;;;;;;;4.50;3.67;;;12.00;99.90;;;;;;5113510;28;20208;-70
2022/04/30 11:39:21;;;;;;;4.05;3.85;;;12.10;99.90;;;;;;5113632;28;20246;-70
2022/04/30 11:41:49;;;;;;;4.20;3.47;;;12.30;99.90;;;;;;5112939;28;20159;-69
2022/04/30 11:44:19;;;;;;;7.55;4.25;;;12.50;99.90;;;;;;5113829;28;20174;-70
2022/04/30 11:46:46;;;;;;;7.82;4.00;;;12.80;99.90;;;;;;5113670;28;20171;-70
2022/04/30 11:49:14;;;;;;;7.85;3.95;;;13.10;99.90;;;;;;5113514;28;20230;-70
2022/04/30 11:51:41;;;;;;;4.72;4.35;;;13.20;99.90;;;;;;5113413;28;20201;-70
2022/04/30 11:54:12;;;;;;;4.35;4.05;;;13.30;99.90;;;;;;5113663;28;20167;-70
2022/04/30 11:56:39;;;;;;;4.43;3.85;;;13.10;99.90;;;;;;5116046;28;20167;-70
2022/04/30 11:59:05;;;;;;;8.55;4.05;;;13.10;99.90;;;;;;5116555;28;20255;-70
2022/04/30 12:01:35;;;;;;;5.53;3.63;;;13.00;99.90;;;;;;5117558;28;20171;-70
2022/04/30 12:04:05;;;;;;;3.88;3.60;;;13.10;99.90;;;;;;5116241;28;20254;-70
2022/04/30 12:06:31;;;;;;;6.05;3.78;;;13.40;99.90;;;;;;5117418;27;20171;-70
2022/04/30 12:08:57;;;;;;;5.95;4.00;;;13.70;99.90;;;;;;5116101;28;20223;-70
2022/04/30 12:11:23;;;;;;;4.15;3.75;;;13.80;99.90;;;;;;5117069;28;20789;-70
2022/04/30 12:14:03;;;;;;;3.63;3.33;;;13.50;99.90;;;;;;5117169;28;20174;-69
2022/04/30 12:16:42;;;;;;;3.75;3.55;;;13.40;99.90;;;;;;5117136;28;20155;-70
2022/04/30 12:25:04;;;;;;;3.42;3.22;;;14.00;99.90;;;;;;5116589;28;20193;-70
2022/04/30 12:27:30;;;;;;;4.05;3.75;;;13.50;99.90;;;;;;5116146;28;20253;-69
2022/04/30 12:30:00;;;;;;;3.45;3.25;;;13.20;99.90;;;;;;5115214;28;20286;-70
2022/04/30 12:32:26;;;;;;;3.92;3.53;;;13.20;99.90;;;;;;5116799;28;20191;-70
2022/04/30 12:34:53;;;;;;;3.42;3.28;;;13.20;99.90;;;;;;5115259;28;20575;-69
2022/04/30 12:37:32;;;;;;;4.25;3.28;;;13.40;99.90;;;;;;5115329;28;20174;-70
2022/04/30 12:39:58;;;;;;;3.58;3.38;;;13.70;99.90;;;;;;5115231;28;20531;-70
2022/04/30 12:42:23;;;;;;;3.85;3.50;;;14.10;99.90;;;;;;5116430;28;20194;-70
2022/04/30 12:44:49;;;;;;;4.47;4.05;;;14.40;99.90;;;;;;5116365;28;20621;-70
2022/04/30 12:47:14;;;;;;;6.70;3.70;;;14.60;99.90;;;;;;5116306;28;20245;-70
2022/04/30 12:49:40;;;;;;;3.80;3.50;;;14.70;99.90;;;;;;5115127;28;20206;-70
2022/04/30 12:52:06;;;;;;;3.88;3.58;;;14.80;99.90;;;;;;5116130;28;20223;-70
2022/04/30 12:54:31;;;;;;;3.85;3.53;;;14.50;99.90;;;;;;5116231;27;20163;-70
2022/04/30 12:56:57;;;;;;;3.75;3.53;;;14.20;99.90;;;;;;5116287;28;20276;-69
2022/04/30 12:59:25;;;;;;;4.35;4.05;;;13.70;99.90;;;;;;5114823;28;20171;-69
2022/04/30 13:01:51;;;;;;;4.00;3.60;;;13.50;99.90;;;;;;5115988;28;20170;-70
2022/04/30 13:04:18;;;;;;;4.05;3.85;;;13.60;99.90;;;;;;5115736;28;20521;-70
2022/04/30 13:06:44;;;;;;;4.47;3.50;;;13.90;99.90;;;;;;5115711;28;20639;-70
2022/04/30 13:14:38;;;;;;;4.07;3.67;;;13.90;99.90;;;;;;5115884;28;20712;-70
2022/04/30 13:17:03;;;;;;;4.68;3.50;;;13.90;99.90;;;;;;5115737;28;20197;-69
2022/04/30 13:19:31;;;;;;;3.88;3.58;;;14.00;99.90;;;;;;5115700;28;20505;-69
2022/04/30 13:21:57;;;;;;;3.90;3.60;;;14.50;99.90;;;;;;5115631;28;20623;-70
2022/04/30 13:24:22;;;;;;;3.95;3.10;;;14.90;99.90;;;;;;5115517;28;20199;-70
2022/04/30 13:26:48;;;;;;;4.57;3.95;;;15.40;99.90;;;;;;5115560;28;20170;-69
2022/04/30 13:29:14;;;;;;;3.80;3.60;;;15.50;99.90;;;;;;5115405;28;20198;-69
2022/04/30 13:31:40;;;;;;;4.10;3.80;;;15.30;99.90;;;;;;5115408;28;20575;-69
2022/04/30 13:34:07;;;;;;;4.13;3.92;;;15.30;99.90;;;;;;5115555;28;20190;-69
2022/04/30 13:36:39;;;;;;;4.70;4.30;;;15.20;99.90;;;;;;5115354;28;20217;-69
2022/04/30 13:39:05;;;;;;;3.85;3.55;;;14.90;99.90;;;;;;5113912;28;20620;-69
2022/04/30 13:41:31;;;;;;;5.55;4.65;;;14.60;99.90;;;;;;5115157;27;20198;-69
2022/04/30 13:43:56;;;;;;;4.18;3.78;;;14.60;99.90;;;;;;5115087;28;20541;-69
2022/04/30 13:46:22;;;;;;;5.53;4.10;;;14.90;99.90;;;;;;5115016;28;20224;-70
2022/04/30 13:48:51;;;;;;;3.05;2.95;;;15.40;99.90;;;;;;5115011;28;20187;-69
2022/04/30 13:51:17;;;;;;;3.38;3.17;;;15.60;99.90;;;;;;5115070;28;20167;-70
2022/04/30 13:53:43;;;;;;;3.63;3.33;;;15.80;99.90;;;;;;5115013;28;20170;-70
2022/04/30 13:56:08;;;;;;;3.95;3.65;;;16.00;99.90;;;;;;5113729;28;20171;-70
2022/04/30 13:58:34;;;;;;;3.67;3.38;;;16.30;99.90;;;;;;5114866;28;20171;-70
2022/04/30 14:01:00;;;;;;;3.30;3.10;;;16.30;99.90;;;;;;5114873;28;20170;-70
2022/04/30 14:03:27;;;;;;;3.38;3.17;;;16.50;99.90;;;;;;5114843;28;20624;-70
2022/04/30 14:05:54;;;;;;;3.38;3.10;;;17.00;99.90;;;;;;5113433;28;20535;-69
2022/04/30 14:08:20;;;;;;;4.03;3.72;;;17.20;99.90;;;;;;5114601;28;20183;-69
2022/04/30 14:10:46;;;;;;;4.95;3.92;;;16.70;99.90;;;;;;5114602;28;20199;-69
2022/04/30 14:15:56;;;;;;;4.13;3.63;;;16.00;99.90;;;;;;5114872;28;20177;-69
2022/04/30 14:18:25;;;;;;;5.45;3.90;;;15.80;99.90;;;;;;5112756;28;20159;-69
2022/04/30 14:20:51;;;;;;;4.38;3.33;;;15.80;99.90;;;;;;5114538;28;20538;-69
2022/04/30 14:23:18;;;;;;;7.85;3.47;;;15.90;99.90;;;;;;5114458;28;20249;-69
2022/04/30 14:25:44;;;;;;;3.10;2.90;;;15.70;99.90;;;;;;5114280;28;20189;-69
2022/04/30 14:28:11;;;;;;;4.18;3.25;;;15.30;99.90;;;;;;5114364;28;20201;-69
2022/04/30 14:30:38;;;;;;;3.35;3.15;;;15.00;99.90;;;;;;5114273;28;20190;-69
2022/04/30 14:33:05;;;;;;;6.05;3.42;;;14.80;99.90;;;;;;5114286;28;20170;-69
2022/04/30 14:35:31;;;;;;;3.30;3.05;;;14.50;99.90;;;;;;5114279;28;20579;-69
2022/04/30 14:37:57;;;;;;;3.38;3.17;;;14.30;99.90;;;;;;5114185;28;20241;-69
2022/04/30 14:40:23;;;;;;;3.30;3.10;;;14.40;99.90;;;;;;5114073;28;20245;-69
2022/04/30 14:42:49;;;;;;;3.90;3.70;;;14.30;99.90;;;;;;5114155;28;20246;-69
2022/04/30 14:45:17;;;;;;;3.88;3.53;;;14.30;99.90;;;;;;5114076;28;20171;-69
2022/04/30 14:47:43;;;;;;;4.18;3.78;;;14.20;99.90;;;;;;5114095;28;20167;-69
2022/04/30 14:50:09;;;;;;;3.55;3.25;;;14.70;99.90;;;;;;5113910;28;20199;-69
2022/04/30 14:52:35;;;;;;;3.42;3.22;;;15.40;99.90;;;;;;5113933;28;20178;-69
2022/04/30 14:55:03;;;;;;;3.63;3.33;;;16.00;99.90;;;;;;5113847;28;20163;-69
2022/04/30 14:57:29;;;;;;;3.70;3.40;;;16.20;99.90;;;;;;5113891;28;20159;-69
2022/04/30 14:59:54;;;;;;;3.72;3.20;;;15.90;99.90;;;;;;5113946;28;20190;-69
2022/04/30 15:02:20;;;;;;;5.68;3.90;;;15.50;99.90;;;;;;5113870;28;20624;-69
2022/04/30 15:04:45;;;;;;;3.70;3.30;;;15.30;99.90;;;;;;5113855;28;20175;-69
2022/04/30 15:07:12;;;;;;;4.93;3.33;;;15.00;99.90;;;;;;5112619;28;20175;-69
2022/04/30 15:09:40;;;;;;;3.90;3.38;;;14.80;99.90;;;;;;5113475;28;20226;-69
2022/04/30 15:12:06;;;;;;;4.75;3.22;;;14.50;99.90;;;;;;5113811;28;20170;-69
2022/04/30 15:14:31;;;;;;;3.80;3.17;;;14.30;99.90;;;;;;5113678;28;20166;-69
2022/04/30 15:16:57;;;;;;;3.55;3.25;;;14.50;99.90;;;;;;5113745;28;20163;-69
2022/04/30 15:19:22;;;;;;;3.28;2.83;;;14.90;99.90;;;;;;5113742;28;20175;-69
2022/04/30 15:21:48;;;;;;;3.10;2.90;;;15.40;99.90;;;;;;5113741;28;20163;-69
2022/04/30 15:24:16;;;;;;;3.72;2.88;;;15.60;99.90;;;;;;5113554;28;20199;-69
2022/04/30 15:26:42;;;;;;;3.20;2.90;;;15.70;99.90;;;;;;5113699;28;20163;-69
2022/04/30 15:29:07;;;;;;;3.10;2.92;;;15.60;99.90;;;;;;5113527;28;20195;-69
2022/04/30 15:31:35;;;;;;;5.10;3.40;;;15.70;99.90;;;;;;5115994;28;20171;-69
2022/04/30 15:34:01;;;;;;;2.90;2.80;;;15.80;99.90;;;;;;5117721;28;20166;-69
2022/04/30 15:36:26;;;;;;;3.53;3.33;;;15.80;99.90;;;;;;5117685;28;20167;-69
2022/04/30 15:38:52;;;;;;;3.72;3.28;;;15.90;99.90;;;;;;5117643;28;20163;-69
2022/04/30 15:41:21;;;;;;;3.28;3.08;;;15.80;99.90;;;;;;5117627;27;20175;-69
2022/04/30 15:43:47;;;;;;;3.83;3.20;;;15.80;99.90;;;;;;5117582;28;20168;-69
2022/04/30 15:46:12;;;;;;;5.63;2.97;;;15.80;99.90;;;;;;5117512;28;20174;-70
2022/04/30 15:51:42;;;;;;;4.70;3.30;;;15.60;99.90;;;;;;5054226;28;20630;-69
2022/04/30 15:54:08;;;;;;;4.57;3.33;;;15.50;99.90;;;;;;5037805;28;20179;-69
2022/04/30 15:56:34;;;;;;;5.47;3.60;;;15.30;99.90;;;;;;5083056;28;20636;-70
2022/04/30 15:59:00;;;;;;;4.55;3.47;;;15.50;99.90;;;;;;5117290;28;20201;-70
2022/04/30 16:01:27;;;;;;;3.72;3.40;;;16.10;99.90;;;;;;5117233;28;20198;-70
2022/04/30 16:03:54;;;;;;;5.43;3.10;;;16.50;99.90;;;;;;5117198;28;20174;-70
2022/04/30 16:06:22;;;;;;;4.55;3.53;;;16.60;99.90;;;;;;5117186;28;20178;-70
2022/04/30 16:08:48;;;;;;;3.55;3.25;;;16.40;99.90;;;;;;5116835;28;20268;-70
2022/04/30 16:11:14;;;;;;;3.40;3.10;;;16.10;99.90;;;;;;5116991;28;20163;-70
2022/04/30 16:13:43;;;;;;;6.18;3.40;;;15.70;99.90;;;;;;5116983;28;20266;-69
2022/04/30 16:16:10;;;;;;;3.40;3.03;;;15.30;99.90;;;;;;5116909;28;20645;-69
2022/04/30 16:18:35;;;;;;;4.88;3.05;;;15.10;99.90;;;;;;5116788;28;20250;-70
2022/04/30 16:21:02;;;;;;;7.10;3.03;;;15.00;99.90;;;;;;5116757;28;20259;-69
2022/04/30 16:23:28;;;;;;;3.47;3.25;;;14.80;99.90;;;;;;5116747;28;20501;-69
2022/04/30 16:25:54;;;;;;;3.17;3.00;;;14.60;99.90;;;;;;5116604;27;20282;-69
2022/04/30 16:28:21;;;;;;;3.50;3.25;;;14.60;99.90;;;;;;5116690;27;20163;-69
2022/04/30 16:30:46;;;;;;;4.97;3.38;;;14.40;99.90;;;;;;5115202;28;20298;-69
2022/04/30 16:33:12;;;;;;;6.32;3.55;;;14.40;99.90;;;;;;5116603;28;20655;-69
2022/04/30 16:35:40;;;;;;;3.25;2.97;;;14.30;99.90;;;;;;5116549;28;20163;-69
2022/04/30 16:38:07;;;;;;;3.13;2.90;;;14.20;99.90;;;;;;5116558;28;20155;-69
2022/04/30 16:40:33;;;;;;;6.65;3.53;;;14.10;99.90;;;;;;5116480;28;20168;-69
2022/04/30 16:42:58;;;;;;;3.53;3.22;;;14.10;99.90;;;;;;5115924;28;20262;-69
2022/04/30 16:45:26;;;;;;;3.30;3.10;;;14.30;99.90;;;;;;5116169;28;20248;-69
2022/04/30 16:47:55;;;;;;;4.03;3.35;;;14.30;99.90;;;;;;5116346;28;20170;-69
2022/04/30 16:50:21;;;;;;;3.03;2.75;;;14.30;99.90;;;;;;5116154;28;20191;-70
2022/04/30 16:52:47;;;;;;;4.30;3.40;;;14.10;99.90;;;;;;5116281;28;20155;-69
2022/04/30 16:58:00;;;;;;;2.80;2.67;;;13.90;99.90;;;;;;5116403;28;20198;-70
2022/04/30 17:00:28;;;;;;;3.78;3.47;;;13.90;99.90;;;;;;5116077;28;20167;-70
2022/04/30 17:02:55;;;;;;;3.60;3.35;;;13.80;99.90;;;;;;5116029;28;20167;-70
2022/04/30 17:05:21;;;;;;;3.38;3.17;;;13.80;99.90;;;;;;5114752;28;20177;-69
2022/04/30 17:07:50;;;;;;;3.47;3.20;;;14.00;99.90;;;;;;5115994;28;20235;-70
2022/04/30 17:10:17;;;;;;;5.53;3.40;;;14.10;99.90;;;;;;5115652;28;20310;-70
2022/04/30 17:12:43;;;;;;;8.48;4.50;;;14.20;99.90;;;;;;5115972;28;20182;-70
2022/04/30 17:15:09;;;;;;;3.35;3.00;;;14.10;99.90;;;;;;5115836;28;20593;-70
2022/04/30 17:17:41;;;;;;;4.28;3.33;;;14.00;99.90;;;;;;5115733;28;20656;-69
2022/04/30 17:20:12;;;;;;;4.45;3.50;;;13.90;99.90;;;;;;5114426;28;20186;-70
2022/04/30 17:22:42;;;;;;;5.05;3.90;;;13.90;99.90;;;;;;5115695;27;20175;-70
2022/04/30 17:25:09;;;;;;;3.90;3.60;;;13.90;99.90;;;;;;5115544;28;20203;-69
2022/04/30 17:27:36;;;;;;;3.60;3.30;;;14.00;99.90;;;;;;5115602;28;20169;-70
2022/04/30 17:30:02;;;;;;;4.00;3.75;;;14.10;99.90;;;;;;5115426;28;20243;-70
2022/04/30 17:38:01;;;;;;;4.32;4.03;;;14.30;99.90;;;;;;5115376;28;20178;-70
2022/04/30 17:40:27;;;;;;;4.00;3.80;;;14.20;99.90;;;;;;5115339;27;20699;-70
2022/04/30 17:42:55;;;;;;;3.80;3.50;;;14.40;99.90;;;;;;5115236;28;20175;-70
2022/04/30 17:45:22;;;;;;;4.05;3.72;;;14.40;99.90;;;;;;5115200;28;20539;-69
2022/04/30 17:47:47;;;;;;;4.50;3.85;;;14.40;99.90;;;;;;5115109;28;20178;-70
2022/04/30 17:50:13;;;;;;;4.88;4.32;;;14.30;99.90;;;;;;5114747;28;20206;-70
2022/04/30 17:52:39;;;;;;;3.83;3.30;;;14.40;99.90;;;;;;5114827;28;20208;-69
2022/04/30 17:55:05;;;;;;;5.43;4.13;;;14.40;99.90;;;;;;5114355;28;20163;-70
2022/04/30 17:57:31;;;;;;;4.28;4.00;;;14.10;99.90;;;;;;5114932;28;20671;-70
2022/04/30 17:59:57;;;;;;;4.30;4.00;;;13.80;99.90;;;;;;5114897;28;20167;-69
2022/04/30 18:02:23;;;;;;;5.40;3.85;;;13.50;99.90;;;;;;5114828;28;20232;-69
2022/04/30 18:04:49;;;;;;;3.97;3.67;;;13.30;99.90;;;;;;5114828;28;20196;-69
2022/04/30 18:07:15;;;;;;;4.35;3.95;;;13.10;99.90;;;;;;5114740;28;20171;-69
2022/04/30 18:09:41;;;;;;;4.70;3.97;;;13.10;99.90;;;;;;5114471;28;20218;-69
2022/04/30 18:12:09;;;;;;;3.90;3.60;;;12.90;99.90;;;;;;5114648;28;20178;-70
2022/04/30 18:14:37;;;;;;;4.57;4.20;;;12.80;99.90;;;;;;5114607;28;20167;-69
2022/04/30 18:17:07;;;;;;;6.63;4.25;;;12.80;99.90;;;;;;5114560;28;20654;-69
2022/04/30 18:19:33;;;;;;;5.07;4.68;;;12.60;99.90;;;;;;5114593;28;20171;-69
2022/04/30 18:21:59;;;;;;;5.90;3.85;;;12.50;99.90;;;;;;5114530;28;20227;-69
2022/04/30 18:24:25;;;;;;;4.95;4.10;;;12.40;99.90;;;;;;5114435;28;20585;-69
2022/04/30 18:26:52;;;;;;;5.03;4.55;;;12.40;99.90;;;;;;5114373;28;20303;-69
2022/04/30 18:29:18;;;;;;;4.65;3.90;;;12.30;99.90;;;;;;5112987;28;20287;-69
2022/04/30 18:31:45;;;;;;;5.55;4.20;;;12.20;99.90;;;;;;5113257;28;20206;-69
2022/04/30 18:34:11;;;;;;;4.53;4.07;;;12.10;99.90;;;;;;5114319;28;20159;-69
2022/04/30 18:36:37;;;;;;;4.55;4.25;;;12.00;99.90;;;;;;5112936;28;20214;-69
2022/04/30 18:39:04;;;;;;;6.45;4.63;;;11.80;99.90;;;;;;5114231;28;20175;-69
2022/04/30 18:41:30;;;;;;;5.35;4.95;;;11.60;99.90;;;;;;5114141;28;20631;-69
2022/04/30 18:44:00;;;;;;;5.57;4.82;;;11.60;99.90;;;;;;5114151;28;20533;-69
2022/04/30 18:46:26;;;;;;;5.13;4.32;;;11.40;99.90;;;;;;5114362;28;20312;-69
2022/04/30 18:48:52;;;;;;;5.20;4.78;;;11.30;99.90;;;;;;5113987;28;20809;-69
2022/04/30 18:51:18;;;;;;;5.20;4.70;;;11.20;99.90;;;;;;5114089;28;20262;-69
